Time;durP1;ratioP1;P1;durP2;ratioP2;P2;SDS_P1;SDS_P2;PMS_P1;PMS_P2;Temp;Humidity;BMP_temperature;BMP_pressure;BME280_temperature;BME280_humidity;BME280_pressure;Samples;Min_cycle;Max_cycle;Signal;HPM_P1;HPM_P2
2022/10/11 00:02:24;;;;;;;87.25;33.08;;;12.00;99.90;;;;;;5048675;28;20025;-89
2022/10/11 00:04:50;;;;;;;81.05;31.42;;;12.00;99.90;;;;;;5062760;28;20373;-89
2022/10/11 00:07:17;;;;;;;81.45;30.45;;;11.90;99.90;;;;;;5050801;28;20024;-88
2022/10/11 00:09:43;;;;;;;94.45;31.50;;;12.00;99.90;;;;;;5061128;28;20047;-89
2022/10/11 00:12:09;;;;;;;79.55;29.65;;;11.90;99.90;;;;;;5077513;28;20024;-88
2022/10/11 00:14:36;;;;;;;80.50;30.45;;;11.90;99.90;;;;;;5064607;28;20028;-88
2022/10/11 00:17:02;;;;;;;68.32;30.02;;;11.90;99.90;;;;;;5060307;28;20025;-88
2022/10/11 00:19:28;;;;;;;72.82;28.55;;;11.90;99.90;;;;;;5049119;28;20201;-88
2022/10/11 00:21:54;;;;;;;79.40;29.55;;;11.90;99.90;;;;;;5059127;28;20052;-89
2022/10/11 00:24:19;;;;;;;80.78;28.23;;;11.90;99.90;;;;;;5066796;28;20024;-88
2022/10/11 00:26:45;;;;;;;76.47;28.73;;;11.90;99.90;;;;;;5043924;28;20495;-88
2022/10/11 00:29:11;;;;;;;80.45;31.15;;;11.90;99.90;;;;;;5078364;28;20115;-88
2022/10/11 00:31:38;;;;;;;82.93;29.60;;;11.90;99.90;;;;;;5047427;28;20032;-88
2022/10/11 00:34:22;;;;;;;74.25;30.15;;;11.90;99.90;;;;;;5045006;28;20396;-89
2022/10/11 00:36:48;;;;;;;82.32;30.10;;;11.90;99.90;;;;;;5063928;28;20055;-89
2022/10/11 00:39:13;;;;;;;76.15;29.48;;;11.90;99.90;;;;;;5048784;28;20111;-89
2022/10/11 00:41:39;;;;;;;71.13;28.45;;;11.80;99.90;;;;;;5049216;28;20078;-89
2022/10/11 00:44:42;;;;;;;70.15;27.55;;;11.90;99.90;;;;;;5046208;28;20089;-89
2022/10/11 00:47:14;;;;;;;78.35;29.30;;;11.80;99.90;;;;;;5043557;28;20063;-90
2022/10/11 00:49:55;;;;;;;71.88;28.08;;;11.80;99.90;;;;;;5092081;28;20519;-88
2022/10/11 00:52:36;;;;;;;71.78;28.23;;;11.70;99.90;;;;;;5050734;28;20056;-89
2022/10/11 00:55:06;;;;;;;77.13;27.65;;;11.70;99.90;;;;;;5056613;28;20063;-88
2022/10/11 00:57:38;;;;;;;72.25;27.63;;;11.70;99.90;;;;;;5049694;28;20033;-89
2022/10/11 01:00:10;;;;;;;69.85;28.00;;;11.70;99.90;;;;;;5065483;28;20021;-89
2022/10/11 01:02:36;;;;;;;;;;;11.60;99.90;;;;;;5061907;28;20021;-89
2022/10/11 01:05:04;;;;;;;75.30;28.15;;;11.70;99.90;;;;;;5049571;28;19912;-89
2022/10/11 01:07:30;;;;;;;73.15;28.02;;;11.60;99.90;;;;;;5047315;28;20025;-89
2022/10/11 01:09:57;;;;;;;67.05;29.13;;;11.60;99.90;;;;;;5039748;28;20115;-89
2022/10/11 01:12:25;;;;;;;70.30;28.90;;;11.70;99.90;;;;;;5047997;28;20471;-88
2022/10/11 01:15:04;;;;;;;77.63;30.30;;;11.60;99.90;;;;;;5042790;28;20495;-89
2022/10/11 01:17:41;;;;;;;66.75;28.67;;;11.60;99.90;;;;;;5065361;28;20120;-89
2022/10/11 01:20:25;;;;;;;70.70;29.35;;;11.60;99.90;;;;;;5063423;28;20472;-90
2022/10/11 01:23:16;;;;;;;78.80;29.30;;;11.60;99.90;;;;;;5050099;28;20151;-89
2022/10/11 01:26:00;;;;;;;84.53;30.17;;;11.60;99.90;;;;;;5073931;28;20021;-90
2022/10/11 01:28:31;;;;;;;75.93;30.50;;;11.60;99.90;;;;;;5044788;28;20018;-91
2022/10/11 01:31:07;;;;;;;71.20;30.52;;;11.60;99.90;;;;;;5037833;28;20060;-90
2022/10/11 01:33:41;;;;;;;90.10;32.20;;;11.60;99.90;;;;;;5062324;28;20033;-90
2022/10/11 01:36:33;;;;;;;80.57;30.98;;;11.60;99.90;;;;;;5046571;28;20031;-90
2022/10/11 01:39:22;;;;;;;75.15;31.50;;;11.50;99.90;;;;;;5054855;28;20031;-90
2022/10/11 01:42:08;;;;;;;69.97;30.48;;;11.50;99.90;;;;;;5048098;28;20044;-91
2022/10/11 01:48:15;;;;;;;78.97;31.08;;;11.50;99.90;;;;;;5054321;28;20048;-90
2022/10/11 01:50:49;;;;;;;74.57;30.65;;;11.50;99.90;;;;;;5045389;28;20025;-90
2022/10/11 01:53:18;;;;;;;73.93;30.77;;;11.40;99.90;;;;;;5045885;28;20063;-92
2022/10/11 01:56:11;;;;;;;78.85;30.70;;;11.40;99.90;;;;;;5049699;28;20483;-90
2022/10/11 01:58:57;;;;;;;76.88;32.72;;;11.40;99.90;;;;;;5044116;28;20037;-91
2022/10/11 02:01:32;;;;;;;73.88;31.45;;;11.30;99.90;;;;;;5039479;28;20056;-91
2022/10/11 02:04:47;;;;;;;76.25;32.67;;;11.30;99.90;;;;;;5041539;28;20029;-91
2022/10/11 02:07:23;;;;;;;85.43;35.83;;;11.30;99.90;;;;;;5032765;28;20039;-90
2022/10/11 02:13:55;;;;;;;87.65;34.55;;;11.30;99.90;;;;;;5048261;28;20072;-91
2022/10/11 02:16:27;;;;;;;99.75;37.08;;;11.30;99.90;;;;;;5051573;28;20021;-90
2022/10/11 02:18:55;;;;;;;90.40;35.83;;;11.20;99.90;;;;;;5083242;28;20033;-90
2022/10/11 02:21:22;;;;;;;88.90;35.20;;;11.20;99.90;;;;;;5049161;28;20017;-89
2022/10/11 02:23:54;;;;;;;95.13;37.95;;;11.20;99.90;;;;;;5060605;28;20059;-90
2022/10/11 02:26:22;;;;;;;88.78;38.33;;;11.20;99.90;;;;;;5051155;28;20025;-90
2022/10/11 02:28:52;;;;;;;96.13;37.60;;;11.20;99.90;;;;;;5042731;28;20039;-89
2022/10/11 02:31:19;;;;;;;93.60;38.30;;;11.20;99.90;;;;;;5079479;28;20021;-89
2022/10/11 02:33:55;;;;;;;98.10;38.15;;;11.10;99.90;;;;;;5044546;28;20036;-89
2022/10/11 02:36:39;;;;;;;97.60;40.17;;;11.20;99.90;;;;;;5081349;28;20055;-89
2022/10/11 02:39:11;;;;;;;93.60;36.95;;;11.10;99.90;;;;;;5054414;28;20047;-89
2022/10/11 02:41:39;;;;;;;109.28;41.10;;;11.10;99.90;;;;;;5069894;28;20021;-89
2022/10/11 02:44:32;;;;;;;87.95;37.17;;;11.00;99.90;;;;;;5047621;28;20017;-90
2022/10/11 02:46:59;;;;;;;99.80;38.05;;;11.10;99.90;;;;;;5044143;28;20028;-89
2022/10/11 02:49:28;;;;;;;97.82;38.95;;;11.10;99.90;;;;;;5046196;28;20021;-88
2022/10/11 02:51:58;;;;;;;104.80;41.92;;;11.00;99.90;;;;;;5076711;28;20024;-91
2022/10/11 02:54:25;;;;;;;103.70;41.33;;;11.00;99.90;;;;;;5065824;28;20036;-89
2022/10/11 02:56:50;;;;;;;101.50;40.90;;;11.00;99.90;;;;;;5076266;28;20056;-89
2022/10/11 02:59:16;;;;;;;99.47;41.40;;;11.00;99.90;;;;;;5042306;28;20032;-91
2022/10/11 03:02:26;;;;;;;89.72;39.17;;;11.00;99.90;;;;;;5042020;28;20071;-90
2022/10/11 03:04:52;;;;;;;97.80;40.75;;;11.00;99.90;;;;;;5030967;28;20116;-89
2022/10/11 03:07:17;;;;;;;96.72;40.83;;;11.00;99.90;;;;;;5041159;28;20396;-90
2022/10/11 03:09:44;;;;;;;103.13;41.85;;;11.00;99.90;;;;;;5043931;28;20032;-90
2022/10/11 03:12:09;;;;;;;101.10;40.17;;;10.90;99.90;;;;;;5064013;28;20025;-90
2022/10/11 03:14:35;;;;;;;98.97;43.45;;;11.00;99.90;;;;;;5044204;28;20091;-89
2022/10/11 03:17:01;;;;;;;100.22;42.25;;;10.90;99.90;;;;;;5039840;28;20119;-90
2022/10/11 03:19:26;;;;;;;108.28;45.05;;;10.90;99.90;;;;;;5046356;28;20028;-90
2022/10/11 03:21:52;;;;;;;109.05;45.17;;;10.90;99.90;;;;;;5038422;28;20829;-89
2022/10/11 03:24:18;;;;;;;106.60;42.83;;;10.90;99.90;;;;;;5076411;28;20486;-89
2022/10/11 03:26:43;;;;;;;109.20;45.25;;;10.90;99.90;;;;;;5042087;28;20098;-90
2022/10/11 03:29:09;;;;;;;104.40;45.60;;;10.90;99.90;;;;;;5075375;28;20020;-88
2022/10/11 03:31:35;;;;;;;109.00;44.53;;;10.80;99.90;;;;;;5045477;28;20040;-89
2022/10/11 03:34:01;;;;;;;112.97;46.13;;;10.90;99.90;;;;;;5041972;28;20162;-89
2022/10/11 03:36:26;;;;;;;107.25;45.88;;;10.90;99.90;;;;;;5045984;28;20024;-89
2022/10/11 03:38:52;;;;;;;110.38;45.33;;;10.90;99.90;;;;;;5037858;28;20060;-89
2022/10/11 03:41:18;;;;;;;119.63;48.75;;;10.90;99.90;;;;;;5075868;28;20119;-89
2022/10/11 03:43:44;;;;;;;113.43;48.53;;;10.90;99.90;;;;;;5042060;28;20025;-90
2022/10/11 03:46:09;;;;;;;120.63;47.83;;;10.90;99.90;;;;;;5092072;28;20098;-89
2022/10/11 03:48:35;;;;;;;106.03;47.97;;;10.80;99.90;;;;;;5044963;28;20024;-90
2022/10/11 03:51:13;;;;;;;117.75;49.40;;;10.80;99.90;;;;;;5058202;28;20032;-89
2022/10/11 03:53:40;;;;;;;127.45;47.63;;;10.80;99.90;;;;;;5033364;28;20025;-90
2022/10/11 03:56:07;;;;;;;125.50;49.20;;;10.80;99.90;;;;;;5035503;28;20029;-89
2022/10/11 03:58:33;;;;;;;120.65;52.13;;;10.80;99.90;;;;;;5079530;28;20024;-89
2022/10/11 04:01:03;;;;;;;122.10;49.50;;;10.70;99.90;;;;;;5037463;28;20047;-90
2022/10/11 04:03:29;;;;;;;126.35;50.90;;;10.70;99.90;;;;;;5063889;28;20037;-90
2022/10/11 04:05:55;;;;;;;122.05;47.05;;;10.60;99.90;;;;;;5044195;28;20033;-90
2022/10/11 04:08:21;;;;;;;118.43;49.67;;;10.70;99.90;;;;;;5079244;28;20553;-91
2022/10/11 04:10:47;;;;;;;122.57;48.97;;;10.70;99.90;;;;;;5044035;28;20028;-90
2022/10/11 04:13:13;;;;;;;122.18;50.60;;;10.70;99.90;;;;;;5034472;28;20053;-90
2022/10/11 04:15:40;;;;;;;106.95;46.92;;;10.70;99.90;;;;;;5063536;28;20021;-90
2022/10/11 04:18:06;;;;;;;119.10;47.95;;;10.80;99.90;;;;;;5041039;28;20025;-90
2022/10/11 04:20:31;;;;;;;115.88;49.97;;;10.70;99.90;;;;;;5052996;28;20391;-90
2022/10/11 04:22:57;;;;;;;120.70;48.13;;;10.80;99.90;;;;;;5040783;28;20059;-90
2022/10/11 04:25:23;;;;;;;134.70;51.42;;;10.80;99.90;;;;;;5042753;28;20026;-90
2022/10/11 04:27:49;;;;;;;115.70;51.15;;;10.80;99.90;;;;;;5072929;28;20053;-91
2022/10/11 04:30:15;;;;;;;120.53;49.25;;;10.80;99.90;;;;;;5046816;28;20025;-90
2022/10/11 04:32:42;;;;;;;122.88;49.28;;;10.70;99.90;;;;;;5072240;28;20029;-91
2022/10/11 04:35:08;;;;;;;128.27;50.85;;;10.70;99.90;;;;;;5050694;28;20025;-91
2022/10/11 04:37:34;;;;;;;129.93;49.80;;;10.70;99.90;;;;;;5037091;28;20028;-90
2022/10/11 04:39:59;;;;;;;114.50;48.08;;;10.70;99.90;;;;;;5041207;28;20024;-90
2022/10/11 04:42:25;;;;;;;129.93;50.25;;;10.80;99.90;;;;;;5057663;28;20026;-90
2022/10/11 04:44:51;;;;;;;115.75;49.00;;;10.80;99.90;;;;;;5073261;28;20032;-90
2022/10/11 04:47:18;;;;;;;124.65;49.40;;;10.80;99.90;;;;;;5047292;28;20119;-91
2022/10/11 04:49:43;;;;;;;117.10;47.50;;;10.80;99.90;;;;;;5092327;28;20041;-90
2022/10/11 04:52:09;;;;;;;122.30;48.92;;;10.80;99.90;;;;;;5071081;28;20100;-90
2022/10/11 04:54:35;;;;;;;125.53;49.17;;;10.70;99.90;;;;;;5074530;28;20461;-90
2022/10/11 04:57:01;;;;;;;133.38;51.45;;;10.70;99.90;;;;;;5044566;28;20093;-90
2022/10/11 04:59:26;;;;;;;128.40;49.40;;;10.70;99.90;;;;;;5044455;28;20060;-90
2022/10/11 05:01:52;;;;;;;121.95;47.22;;;10.70;99.90;;;;;;5077960;28;20325;-90
2022/10/11 05:04:18;;;;;;;126.35;50.10;;;10.70;99.90;;;;;;5048010;28;20112;-89
2022/10/11 05:06:43;;;;;;;125.45;48.42;;;10.70;99.90;;;;;;5092573;28;20061;-90
2022/10/11 05:09:09;;;;;;;114.60;48.58;;;10.70;99.90;;;;;;5053832;28;20159;-89
2022/10/11 05:11:35;;;;;;;123.60;47.67;;;10.70;99.90;;;;;;5073695;28;20484;-88
2022/10/11 05:14:01;;;;;;;111.72;46.08;;;10.60;99.90;;;;;;5043986;28;20055;-89
2022/10/11 05:16:26;;;;;;;120.97;47.70;;;10.60;99.90;;;;;;5043627;28;20116;-90
2022/10/11 05:18:52;;;;;;;122.63;49.22;;;10.60;99.90;;;;;;5051417;28;20032;-89
2022/10/11 05:21:24;;;;;;;119.03;48.92;;;10.60;99.90;;;;;;5046196;28;20027;-90
2022/10/11 05:23:51;;;;;;;120.55;47.80;;;10.60;99.90;;;;;;5039513;28;20045;-89
2022/10/11 05:26:19;;;;;;;127.53;47.83;;;10.60;99.90;;;;;;5046444;28;20303;-89
2022/10/11 05:28:45;;;;;;;106.68;45.35;;;10.60;99.90;;;;;;5040821;28;20050;-90
2022/10/11 05:31:11;;;;;;;107.47;47.03;;;10.50;99.90;;;;;;5047095;28;20013;-90
2022/10/11 05:33:37;;;;;;;118.55;47.30;;;10.60;99.90;;;;;;5043311;28;20070;-89
2022/10/11 05:36:04;;;;;;;106.82;45.65;;;10.60;99.90;;;;;;5064915;28;20495;-90
2022/10/11 05:38:30;;;;;;;114.00;47.45;;;10.60;99.90;;;;;;5045736;28;20032;-90
2022/10/11 05:40:59;;;;;;;103.72;46.97;;;10.50;99.90;;;;;;5029408;28;20074;-89
2022/10/11 05:43:25;;;;;;;109.78;47.97;;;10.50;99.90;;;;;;5033812;28;20060;-90
2022/10/11 05:45:51;;;;;;;106.00;47.15;;;10.50;99.90;;;;;;5041371;28;20133;-90
2022/10/11 05:48:17;;;;;;;107.43;47.35;;;10.60;99.90;;;;;;5046569;28;20388;-89
2022/10/11 05:50:43;;;;;;;116.22;50.45;;;10.50;99.90;;;;;;5042626;28;20028;-89
2022/10/11 05:53:08;;;;;;;104.95;46.00;;;10.60;99.90;;;;;;5063557;28;20052;-90
2022/10/11 05:55:39;;;;;;;102.05;45.08;;;10.60;99.90;;;;;;5060515;28;20024;-89
2022/10/11 05:58:06;;;;;;;100.35;45.53;;;10.50;99.90;;;;;;5089769;28;20676;-90
2022/10/11 06:00:36;;;;;;;98.07;42.30;;;10.50;99.90;;;;;;5044388;28;20051;-90
2022/10/11 06:03:04;;;;;;;97.75;44.00;;;10.50;99.90;;;;;;5040666;28;20031;-91
2022/10/11 06:05:30;;;;;;;131.77;61.55;;;10.50;99.90;;;;;;5031678;28;20117;-90
2022/10/11 06:07:57;;;;;;;312.85;164.57;;;10.50;99.90;;;;;;5056105;28;20048;-90
2022/10/11 06:10:24;;;;;;;132.75;59.65;;;10.60;99.90;;;;;;5032456;28;20381;-91
2022/10/11 06:12:49;;;;;;;105.70;48.80;;;10.60;99.90;;;;;;5071967;28;20790;-91
2022/10/11 06:15:16;;;;;;;99.03;46.67;;;10.60;99.90;;;;;;5046572;28;20032;-90
2022/10/11 06:17:42;;;;;;;95.70;43.47;;;10.70;99.90;;;;;;5055269;28;20025;-90
2022/10/11 06:20:08;;;;;;;94.85;41.97;;;10.70;99.90;;;;;;5037954;28;20720;-91
2022/10/11 06:22:34;;;;;;;90.88;42.75;;;10.70;99.90;;;;;;5036219;28;20025;-89
2022/10/11 06:25:00;;;;;;;85.35;39.97;;;10.70;99.90;;;;;;5047672;28;20167;-89
2022/10/11 06:27:26;;;;;;;83.15;40.72;;;10.70;99.90;;;;;;5062446;28;20024;-90
2022/10/11 06:29:52;;;;;;;84.40;40.40;;;10.80;99.90;;;;;;5076441;28;20036;-90
2022/10/11 06:32:18;;;;;;;80.70;39.92;;;10.70;99.90;;;;;;5064795;28;20115;-90
2022/10/11 06:34:43;;;;;;;80.22;38.42;;;10.80;99.90;;;;;;5047108;28;20024;-89
2022/10/11 06:37:09;;;;;;;79.38;38.47;;;10.90;99.90;;;;;;5059142;28;20021;-90
2022/10/11 06:39:35;;;;;;;82.63;42.78;;;10.90;99.90;;;;;;5042746;28;20154;-90
2022/10/11 06:42:01;;;;;;;74.35;37.42;;;10.90;99.90;;;;;;5047668;28;20428;-91
2022/10/11 06:44:27;;;;;;;73.80;38.35;;;11.10;99.90;;;;;;5047012;28;20021;-90
2022/10/11 06:46:54;;;;;;;73.82;37.55;;;11.10;99.90;;;;;;5063480;28;20027;-90
2022/10/11 06:49:20;;;;;;;63.25;33.97;;;11.20;99.90;;;;;;5064619;28;20032;-90
2022/10/11 06:51:45;;;;;;;54.17;30.58;;;11.30;99.90;;;;;;5047204;28;20353;-91
2022/10/11 06:54:11;;;;;;;60.97;32.13;;;11.40;99.90;;;;;;5047576;28;20119;-90
2022/10/11 06:56:37;;;;;;;57.70;28.80;;;11.30;99.90;;;;;;5035894;28;20033;-90
2022/10/11 06:59:03;;;;;;;48.75;27.60;;;11.40;99.90;;;;;;5046534;28;20028;-90
2022/10/11 07:01:29;;;;;;;49.15;28.85;;;11.30;99.90;;;;;;5060755;28;20097;-90
2022/10/11 07:03:57;;;;;;;54.65;27.25;;;11.40;99.90;;;;;;5065314;28;20166;-92
2022/10/11 07:06:25;;;;;;;42.92;26.33;;;11.50;99.90;;;;;;5045482;28;20486;-90
2022/10/11 07:08:52;;;;;;;43.25;25.55;;;11.50;99.90;;;;;;5043084;28;20112;-90
2022/10/11 07:11:20;;;;;;;46.25;25.60;;;11.50;99.90;;;;;;5045396;28;20025;-91
2022/10/11 07:13:58;;;;;;;40.83;23.42;;;11.70;99.90;;;;;;5033184;28;20053;-91
2022/10/11 07:16:25;;;;;;;38.10;23.15;;;11.80;99.90;;;;;;5054654;28;20506;-91
2022/10/11 07:18:56;;;;;;;36.13;22.75;;;11.90;99.90;;;;;;5040489;28;20091;-90
2022/10/11 07:21:22;;;;;;;;;;;12.00;99.90;;;;;;5061946;28;20043;-90
2022/10/11 07:23:48;;;;;;;40.92;26.40;;;12.00;99.90;;;;;;5053606;28;19964;-90
2022/10/11 07:26:23;;;;;;;34.42;23.30;;;12.10;99.90;;;;;;5059594;28;20028;-90
2022/10/11 07:28:48;;;;;;;37.38;26.77;;;12.20;99.90;;;;;;5054072;28;20064;-91
2022/10/11 07:31:17;;;;;;;34.30;21.77;;;12.30;99.90;;;;;;5060507;28;20060;-91
2022/10/11 07:33:43;;;;;;;39.63;25.88;;;12.30;99.90;;;;;;5042713;28;20039;-90
2022/10/11 07:36:10;;;;;;;37.38;21.15;;;12.30;99.90;;;;;;5048108;28;20036;-91
2022/10/11 07:38:39;;;;;;;30.33;21.90;;;12.40;99.90;;;;;;5057785;28;20444;-91
2022/10/11 07:41:05;;;;;;;31.17;23.17;;;12.60;99.90;;;;;;5054509;28;20135;-91
2022/10/11 07:43:31;;;;;;;35.00;25.00;;;12.90;99.90;;;;;;5043346;28;20695;-90
2022/10/11 07:46:02;;;;;;;26.23;16.90;;;13.10;99.90;;;;;;5053452;28;20025;-91
2022/10/11 07:48:31;;;;;;;29.40;18.63;;;13.10;99.90;;;;;;5059922;28;20032;-90
2022/10/11 07:51:15;;;;;;;31.75;19.27;;;13.10;99.90;;;;;;5054497;28;20032;-91
2022/10/11 07:53:46;;;;;;;22.98;16.38;;;13.10;99.90;;;;;;5042890;28;20043;-91
2022/10/11 07:56:14;;;;;;;25.27;16.77;;;13.20;99.90;;;;;;5033506;28;20116;-89
2022/10/11 07:58:41;;;;;;;24.52;16.67;;;13.30;99.90;;;;;;5078692;28;20143;-91
2022/10/11 08:01:09;;;;;;;20.45;14.65;;;13.50;99.90;;;;;;5051985;28;20037;-90
2022/10/11 08:03:35;;;;;;;26.95;15.57;;;13.70;99.90;;;;;;5079860;28;20031;-90
2022/10/11 08:06:06;;;;;;;31.52;18.20;;;13.80;99.90;;;;;;5042114;28;20040;-91
2022/10/11 08:08:32;;;;;;;;;;;13.70;99.90;;;;;;5081724;28;20090;-90
2022/10/11 08:11:04;;;;;;;22.02;13.93;;;13.60;99.90;;;;;;5056804;28;19913;-90
2022/10/11 08:13:30;;;;;;;19.75;13.25;;;13.40;99.90;;;;;;5066148;28;20079;-90
2022/10/11 08:15:57;;;;;;;24.00;14.50;;;13.20;99.90;;;;;;5047864;28;20037;-90
2022/10/11 08:18:23;;;;;;;26.20;14.25;;;13.20;99.90;;;;;;5071439;28;20028;-90
2022/10/11 08:20:49;;;;;;;19.60;13.73;;;13.10;99.90;;;;;;5089574;28;20041;-90
2022/10/11 08:23:33;;;;;;;21.25;13.50;;;12.90;99.90;;;;;;5042359;28;20427;-91
2022/10/11 08:26:33;;;;;;;23.35;14.25;;;13.00;99.90;;;;;;5034084;28;20039;-90
2022/10/11 08:32:46;;;;;;;29.75;18.15;;;13.10;99.90;;;;;;5042231;28;20040;-90
2022/10/11 08:35:12;;;;;;;25.55;16.65;;;13.50;99.90;;;;;;5042959;28;20611;-90
2022/10/11 08:37:37;;;;;;;22.83;14.25;;;13.90;99.90;;;;;;5073625;28;20025;-91
2022/10/11 08:40:04;;;;;;;21.83;14.77;;;14.10;99.90;;;;;;5042899;28;20031;-90
2022/10/11 08:42:59;;;;;;;24.45;14.27;;;14.10;99.90;;;;;;5041955;28;20025;-89
2022/10/11 08:45:49;;;;;;;23.48;15.20;;;13.90;99.90;;;;;;5051717;28;20073;-90
2022/10/11 08:48:24;;;;;;;27.48;14.35;;;13.60;99.90;;;;;;5044221;28;20017;-90
2022/10/11 08:50:52;;;;;;;25.08;14.02;;;13.50;99.90;;;;;;5043044;28;20036;-90
2022/10/11 08:53:44;;;;;;;24.65;14.32;;;13.50;99.90;;;;;;5047279;28;20510;-90
2022/10/11 08:56:13;;;;;;;21.08;13.80;;;13.50;99.90;;;;;;5052542;28;20473;-90
2022/10/11 08:58:41;;;;;;;27.63;14.60;;;13.50;99.90;;;;;;5099094;28;20037;-90
2022/10/11 09:01:15;;;;;;;29.63;16.50;;;13.40;99.90;;;;;;5053689;28;20079;-90
2022/10/11 09:03:44;;;;;;;28.35;18.05;;;13.50;99.90;;;;;;5056386;28;20082;-90
2022/10/11 09:06:19;;;;;;;21.05;14.52;;;13.50;99.90;;;;;;5049097;28;20060;-89
2022/10/11 09:09:03;;;;;;;30.15;14.25;;;13.60;99.90;;;;;;5036935;28;20039;-90
2022/10/11 09:19:57;;;;;;;18.48;12.35;;;13.80;99.90;;;;;;5073027;28;20206;-89
2022/10/11 09:26:30;;;;;;;18.52;12.10;;;13.50;99.90;;;;;;5006551;28;20043;-89
2022/10/11 09:29:21;;;;;;;23.38;12.77;;;13.50;99.90;;;;;;5047943;28;20115;-90
2022/10/11 09:31:51;;;;;;;20.92;12.95;;;13.60;99.90;;;;;;5052144;28;20124;-88
2022/10/11 09:34:18;;;;;;;24.88;15.57;;;13.60;99.90;;;;;;5037056;28;20037;-89
2022/10/11 09:37:04;;;;;;;24.02;13.23;;;13.20;99.90;;;;;;5032257;28;20026;-90
2022/10/11 09:39:35;;;;;;;26.60;14.15;;;12.90;99.90;;;;;;5066872;28;20384;-89
2022/10/11 09:42:09;;;;;;;18.88;13.88;;;12.80;99.90;;;;;;5043722;28;20021;-89
2022/10/11 09:44:44;;;;;;;24.77;13.48;;;12.90;99.90;;;;;;5050535;28;20028;-89
2022/10/11 09:47:15;;;;;;;21.73;12.88;;;13.20;99.90;;;;;;5031251;28;20087;-90
2022/10/11 09:49:48;;;;;;;20.35;13.07;;;13.40;99.90;;;;;;5047571;28;20029;-89
2022/10/11 09:52:32;;;;;;;22.50;12.93;;;13.50;99.90;;;;;;5032808;28;20277;-89
2022/10/11 09:55:00;;;;;;;24.38;12.90;;;13.70;99.90;;;;;;5046280;28;20110;-90
2022/10/11 09:57:36;;;;;;;24.58;12.82;;;14.00;99.90;;;;;;5018437;28;20048;-90
2022/10/11 10:00:20;;;;;;;23.60;12.52;;;14.30;99.90;;;;;;5047171;28;20033;-90
2022/10/11 10:02:48;;;;;;;22.35;13.40;;;14.20;99.90;;;;;;5032990;28;20034;-89
2022/10/11 10:05:37;;;;;;;18.70;12.43;;;14.10;99.90;;;;;;5031819;28;20025;-89
2022/10/11 10:08:09;;;;;;;23.58;12.65;;;14.20;99.90;;;;;;5022632;28;20024;-89
2022/10/11 10:10:51;;;;;;;23.02;12.38;;;14.30;99.90;;;;;;5049386;28;20033;-89
2022/10/11 10:13:44;;;;;;;19.90;12.05;;;14.60;99.90;;;;;;5036412;28;20028;-90
2022/10/11 10:16:25;;;;;;;18.25;12.30;;;15.30;99.90;;;;;;5029845;28;20030;-89
2022/10/11 10:18:58;;;;;;;17.30;10.73;;;16.00;99.90;;;;;;5057448;28;20745;-89
2022/10/11 10:21:30;;;;;;;19.00;10.93;;;16.40;99.90;;;;;;5042368;28;20321;-89
2022/10/11 10:24:01;;;;;;;14.95;10.20;;;16.50;99.90;;;;;;5035188;28;20044;-88
2022/10/11 10:26:29;;;;;;;14.33;9.83;;;16.80;99.90;;;;;;5059739;28;20419;-89
2022/10/11 10:29:03;;;;;;;19.93;10.97;;;17.40;99.90;;;;;;5036752;28;20031;-89
2022/10/11 10:31:35;;;;;;;20.90;12.45;;;17.90;99.90;;;;;;5043928;28;20445;-89
2022/10/11 10:34:01;;;;;;;18.63;12.05;;;18.10;99.90;;;;;;5062751;28;20050;-89
2022/10/11 10:36:33;;;;;;;12.85;9.65;;;18.00;99.90;;;;;;5044786;28;20547;-89
2022/10/11 10:39:25;;;;;;;14.60;9.40;;;17.90;99.90;;;;;;5032876;28;20036;-89
2022/10/11 10:41:50;;;;;;;18.10;10.10;;;17.80;99.90;;;;;;5064023;28;20377;-89
2022/10/11 10:44:16;;;;;;;12.68;9.40;;;17.40;99.90;;;;;;5034127;28;20078;-90
2022/10/11 10:46:47;;;;;;;18.38;11.60;;;17.00;99.90;;;;;;5049061;28;20101;-89
2022/10/11 10:49:22;;;;;;;;;;;16.40;99.90;;;;;;5054785;28;20037;-89
2022/10/11 10:52:04;;;;;;;15.27;9.73;;;16.20;99.90;;;;;;5067227;28;19912;-89
2022/10/11 10:54:55;;;;;;;15.65;10.35;;;16.20;99.90;;;;;;5036310;28;20021;-89
2022/10/11 10:57:58;;;;;;;17.20;10.75;;;15.90;99.90;;;;;;5028625;28;20052;-89
2022/10/11 11:00:23;;;;;;;17.10;10.73;;;15.30;99.90;;;;;;5053840;28;20119;-88
2022/10/11 11:02:55;;;;;;;19.83;10.32;;;15.30;99.90;;;;;;5054402;28;20100;-90
2022/10/11 11:05:44;;;;;;;20.30;11.40;;;15.50;99.90;;;;;;5061597;28;20028;-89
2022/10/11 11:08:46;;;;;;;15.43;10.73;;;16.10;99.90;;;;;;5041915;28;20025;-89
2022/10/11 11:11:41;;;;;;;14.95;9.68;;;16.60;99.90;;;;;;5034345;28;20507;-90
2022/10/11 11:14:44;;;;;;;14.93;9.27;;;17.40;99.90;;;;;;5042643;28;20078;-89
2022/10/11 11:17:15;;;;;;;18.27;10.40;;;18.60;99.90;;;;;;5034256;28;20029;-90
2022/10/11 11:19:47;;;;;;;16.10;9.57;;;19.00;99.90;;;;;;5042716;28;20148;-86
2022/10/11 11:22:28;;;;;;;17.85;9.38;;;18.80;99.90;;;;;;5032732;28;20116;-89
2022/10/11 11:25:02;;;;;;;17.45;9.23;;;18.00;99.90;;;;;;5064187;28;20486;-86
2022/10/11 11:27:47;;;;;;;17.10;9.27;;;18.80;99.90;;;;;;5049920;28;20021;-88
2022/10/11 11:30:40;;;;;;;15.02;7.57;;;19.60;99.90;;;;;;5037504;28;20141;-89
2022/10/11 11:33:09;;;;;;;;;;;21.20;99.90;;;;;;5035845;28;20032;-87
2022/10/11 11:35:52;;;;;;;;;;;21.90;99.90;;;;;;5045023;28;20048;-88
2022/10/11 11:38:43;;;;;;;13.17;7.77;;;22.50;99.90;;;;;;5053020;28;20097;-88
2022/10/11 11:41:16;;;;;;;10.15;7.88;;;22.80;99.90;;;;;;5037973;28;20044;-87
2022/10/11 11:44:14;;;;;;;20.02;9.52;;;21.70;99.90;;;;;;5039788;28;20476;-87
2022/10/11 11:46:46;;;;;;;17.63;9.48;;;20.30;99.90;;;;;;5062706;28;20024;-88
2022/10/11 11:49:23;;;;;;;22.10;11.40;;;18.70;99.90;;;;;;5034846;28;20057;-88
2022/10/11 11:51:49;;;;;;;;;;;17.70;99.90;;;;;;5099255;28;20059;-88
2022/10/11 11:54:46;;;;;;;15.75;9.55;;;16.90;99.90;;;;;;5036481;28;20490;-87
2022/10/11 11:57:33;;;;;;;23.23;9.40;;;16.20;99.90;;;;;;5046049;28;20025;-88
2022/10/11 12:00:12;;;;;;;18.45;9.48;;;15.60;99.90;;;;;;5046203;28;20479;-88
2022/10/11 12:02:49;;;;;;;17.15;9.52;;;15.10;99.90;;;;;;5059018;28;20468;-87
2022/10/11 12:05:21;;;;;;;21.02;9.82;;;14.90;99.90;;;;;;5047156;28;20020;-88
2022/10/11 12:07:52;;;;;;;23.65;10.50;;;14.80;99.90;;;;;;5059620;28;20791;-88
2022/10/11 12:10:34;;;;;;;19.35;10.63;;;14.70;99.90;;;;;;5064059;28;20033;-88
2022/10/11 12:13:36;;;;;;;16.27;8.77;;;14.80;99.90;;;;;;5035610;28;20091;-88
2022/10/11 12:16:12;;;;;;;15.73;8.25;;;15.70;99.90;;;;;;5041549;28;20040;-88
2022/10/11 12:18:56;;;;;;;16.73;9.00;;;16.70;99.90;;;;;;5059068;28;20021;-88
2022/10/11 12:21:31;;;;;;;16.10;8.43;;;17.50;99.90;;;;;;5061604;28;20707;-88
2022/10/11 12:24:09;;;;;;;11.70;7.20;;;17.80;99.90;;;;;;5054805;28;20024;-88
2022/10/11 12:26:41;;;;;;;11.82;8.65;;;18.10;99.90;;;;;;5045363;28;20024;-88
2022/10/11 12:29:39;;;;;;;16.88;7.55;;;17.90;99.90;;;;;;5074761;28;20021;-88
2022/10/11 12:32:04;;;;;;;14.88;7.30;;;18.00;99.90;;;;;;5053702;28;20102;-87
2022/10/11 12:34:42;;;;;;;12.73;6.82;;;18.00;99.90;;;;;;5067783;28;20075;-88
2022/10/11 12:37:31;;;;;;;11.70;6.50;;;17.60;99.90;;;;;;5053935;28;20033;-88
2022/10/11 12:40:00;;;;;;;17.58;7.63;;;17.10;99.90;;;;;;5035939;28;20052;-88
2022/10/11 12:43:20;;;;;;;14.80;7.82;;;17.00;99.90;;;;;;5042358;28;20029;-88
2022/10/11 12:45:46;;;;;;;19.95;7.43;;;16.80;99.90;;;;;;5078934;28;20033;-88
2022/10/11 12:48:21;;;;;;;18.10;7.68;;;16.30;99.90;;;;;;5036128;28;20035;-88
2022/10/11 12:51:14;;;;;;;14.15;7.90;;;16.30;99.90;;;;;;5037116;28;20115;-87
2022/10/11 12:54:08;;;;;;;12.40;7.35;;;16.30;99.90;;;;;;5039040;28;20040;-88
2022/10/11 12:57:07;;;;;;;18.05;7.53;;;16.20;99.90;;;;;;5051762;28;20029;-88
2022/10/11 12:59:33;;;;;;;16.65;7.47;;;16.00;99.90;;;;;;5056341;28;20711;-88
2022/10/11 13:01:59;;;;;;;12.77;7.28;;;15.80;99.90;;;;;;5058989;28;20398;-87
2022/10/11 13:04:28;;;;;;;18.27;8.95;;;15.60;99.90;;;;;;5044321;28;20026;-87
2022/10/11 13:06:58;;;;;;;17.02;8.63;;;15.20;99.90;;;;;;5058873;28;20024;-88
2022/10/11 13:13:29;;;;;;;16.05;7.80;;;14.90;99.90;;;;;;5043729;28;20028;-87
2022/10/11 13:15:57;;;;;;;16.63;7.85;;;14.90;99.90;;;;;;5060962;28;20035;-87
2022/10/11 13:18:24;;;;;;;16.75;8.65;;;14.90;99.90;;;;;;5039805;28;20035;-88
2022/10/11 13:20:51;;;;;;;14.85;8.32;;;15.00;99.90;;;;;;5059219;28;20465;-88
2022/10/11 13:23:24;;;;;;;24.50;8.15;;;15.10;99.90;;;;;;5056780;28;20036;-87